sensor_id;sensor_type;location;lat;lon;timestamp;temperature;humidity
13682;DHT22;6913;49.892;7.936;2023-12-04T00:00:28;-1.50;99.90
13682;DHT22;6913;49.892;7.936;2023-12-04T00:02:55;-1.40;99.90
13682;DHT22;6913;49.892;7.936;2023-12-04T00:05:23;-1.40;99.90
13682;DHT22;6913;49.892;7.936;2023-12-04T00:07:50;-1.40;99.90
13682;DHT22;6913;49.892;7.936;2023-12-04T00:10:17;-1.30;99.90
13682;DHT22;6913;49.892;7.936;2023-12-04T00:12:44;-1.30;99.90
13682;DHT22;6913;49.892;7.936;2023-12-04T00:15:10;-1.20;99.90
13682;DHT22;6913;49.892;7.936;2023-12-04T00:17:37;-1.20;99.90
13682;DHT22;6913;49.892;7.936;2023-12-04T00:20:08;-1.40;99.90
13682;DHT22;6913;49.892;7.936;2023-12-04T00:22:37;-1.50;99.90
13682;DHT22;6913;49.892;7.936;2023-12-04T00:25:05;-1.50;99.90
13682;DHT22;6913;49.892;7.936;2023-12-04T00:27:33;-1.60;99.90
13682;DHT22;6913;49.892;7.936;2023-12-04T00:29:59;-1.70;99.90
13682;DHT22;6913;49.892;7.936;2023-12-04T00:32:29;-1.50;99.90
13682;DHT22;6913;49.892;7.936;2023-12-04T00:34:56;-1.70;99.90
13682;DHT22;6913;49.892;7.936;2023-12-04T00:37:23;-1.70;99.90
13682;DHT22;6913;49.892;7.936;2023-12-04T00:39:51;-1.80;99.90
13682;DHT22;6913;49.892;7.936;2023-12-04T00:42:17;-1.80;99.90
13682;DHT22;6913;49.892;7.936;2023-12-04T00:44:44;-1.80;99.90
13682;DHT22;6913;49.892;7.936;2023-12-04T00:47:11;-1.80;99.90
13682;DHT22;6913;49.892;7.936;2023-12-04T00:49:38;-1.80;99.90
13682;DHT22;6913;49.892;7.936;2023-12-04T00:52:05;-1.80;99.90
13682;DHT22;6913;49.892;7.936;2023-12-04T00:54:32;-1.80;99.90
13682;DHT22;6913;49.892;7.936;2023-12-04T00:57:00;-1.80;99.90
13682;DHT22;6913;49.892;7.936;2023-12-04T00:59:26;-1.80;99.90
13682;DHT22;6913;49.892;7.936;2023-12-04T01:01:53;-1.80;99.90
13682;DHT22;6913;49.892;7.936;2023-12-04T01:04:20;-1.90;99.90
13682;DHT22;6913;49.892;7.936;2023-12-04T01:06:47;-1.90;99.90
13682;DHT22;6913;49.892;7.936;2023-12-04T01:09:13;-1.90;99.90
13682;DHT22;6913;49.892;7.936;2023-12-04T01:11:40;-1.90;99.90
13682;DHT22;6913;49.892;7.936;2023-12-04T01:14:09;-1.90;99.90
13682;DHT22;6913;49.892;7.936;2023-12-04T01:16:35;-2.10;99.90
13682;DHT22;6913;49.892;7.936;2023-12-04T01:19:02;-2.10;99.90
13682;DHT22;6913;49.892;7.936;2023-12-04T01:21:29;-2.20;99.90
13682;DHT22;6913;49.892;7.936;2023-12-04T01:23:56;-2.10;99.90
13682;DHT22;6913;49.892;7.936;2023-12-04T01:26:23;-2.10;99.90
13682;DHT22;6913;49.892;7.936;2023-12-04T01:28:49;-2.10;99.90
13682;DHT22;6913;49.892;7.936;2023-12-04T01:31:17;-2.20;99.90
13682;DHT22;6913;49.892;7.936;2023-12-04T01:33:44;-2.20;99.90
13682;DHT22;6913;49.892;7.936;2023-12-04T01:36:11;-2.10;99.90
13682;DHT22;6913;49.892;7.936;2023-12-04T01:38:38;-2.10;99.90
13682;DHT22;6913;49.892;7.936;2023-12-04T01:41:05;-2.10;99.90
13682;DHT22;6913;49.892;7.936;2023-12-04T01:43:32;-2.20;99.90
13682;DHT22;6913;49.892;7.936;2023-12-04T01:46:01;-2.20;99.90
13682;DHT22;6913;49.892;7.936;2023-12-04T01:48:29;-2.10;99.90
13682;DHT22;6913;49.892;7.936;2023-12-04T01:50:57;-2.10;99.90
13682;DHT22;6913;49.892;7.936;2023-12-04T01:53:24;-2.20;99.90
13682;DHT22;6913;49.892;7.936;2023-12-04T01:55:52;-2.20;99.90
13682;DHT22;6913;49.892;7.936;2023-12-04T01:58:19;-2.30;99.90
13682;DHT22;6913;49.892;7.936;2023-12-04T02:00:46;-2.30;99.90
13682;DHT22;6913;49.892;7.936;2023-12-04T02:03:13;-1.50;99.90
13682;DHT22;6913;49.892;7.936;2023-12-04T02:05:44;-2.30;99.90
13682;DHT22;6913;49.892;7.936;2023-12-04T02:08:11;-2.30;99.90
13682;DHT22;6913;49.892;7.936;2023-12-04T02:10:38;-2.40;99.90
13682;DHT22;6913;49.892;7.936;2023-12-04T02:13:05;-2.40;99.90
13682;DHT22;6913;49.892;7.936;2023-12-04T02:15:32;-2.40;99.90
13682;DHT22;6913;49.892;7.936;2023-12-04T02:17:59;-2.50;99.90
13682;DHT22;6913;49.892;7.936;2023-12-04T02:20:31;-2.50;99.90
13682;DHT22;6913;49.892;7.936;2023-12-04T02:23:03;-2.50;99.90
13682;DHT22;6913;49.892;7.936;2023-12-04T02:25:31;-2.50;99.90
13682;DHT22;6913;49.892;7.936;2023-12-04T02:28:00;-2.60;99.90
13682;DHT22;6913;49.892;7.936;2023-12-04T02:30:30;-2.60;99.90
13682;DHT22;6913;49.892;7.936;2023-12-04T02:32:58;-2.60;99.90
13682;DHT22;6913;49.892;7.936;2023-12-04T02:35:27;-2.70;99.90
13682;DHT22;6913;49.892;7.936;2023-12-04T02:37:56;-2.70;99.90
13682;DHT22;6913;49.892;7.936;2023-12-04T02:40:24;-2.70;99.90
13682;DHT22;6913;49.892;7.936;2023-12-04T02:42:53;-2.80;99.90
13682;DHT22;6913;49.892;7.936;2023-12-04T02:45:20;-2.40;99.90
13682;DHT22;6913;49.892;7.936;2023-12-04T02:47:47;-2.80;99.90
13682;DHT22;6913;49.892;7.936;2023-12-04T02:50:14;-2.80;99.90
13682;DHT22;6913;49.892;7.936;2023-12-04T02:52:41;-2.90;99.90
13682;DHT22;6913;49.892;7.936;2023-12-04T02:55:08;-2.90;99.90
13682;DHT22;6913;49.892;7.936;2023-12-04T02:57:35;-1.70;99.90
13682;DHT22;6913;49.892;7.936;2023-12-04T03:00:04;-2.90;99.90
13682;DHT22;6913;49.892;7.936;2023-12-04T03:02:32;-2.90;99.90
13682;DHT22;6913;49.892;7.936;2023-12-04T03:04:58;-3.00;99.90
13682;DHT22;6913;49.892;7.936;2023-12-04T03:07:25;-3.00;99.90
13682;DHT22;6913;49.892;7.936;2023-12-04T03:09:52;-3.00;99.90
13682;DHT22;6913;49.892;7.936;2023-12-04T03:12:19;-3.00;99.90
13682;DHT22;6913;49.892;7.936;2023-12-04T03:14:46;-3.00;99.90
13682;DHT22;6913;49.892;7.936;2023-12-04T03:17:14;-2.90;99.90
13682;DHT22;6913;49.892;7.936;2023-12-04T03:19:41;-2.80;99.90
13682;DHT22;6913;49.892;7.936;2023-12-04T03:22:08;-2.80;99.90
13682;DHT22;6913;49.892;7.936;2023-12-04T03:24:35;-2.70;99.90
13682;DHT22;6913;49.892;7.936;2023-12-04T03:27:02;-2.60;99.90
13682;DHT22;6913;49.892;7.936;2023-12-04T03:29:29;-2.60;99.90
13682;DHT22;6913;49.892;7.936;2023-12-04T03:31:56;-2.60;99.90
13682;DHT22;6913;49.892;7.936;2023-12-04T03:34:24;-2.50;99.90
13682;DHT22;6913;49.892;7.936;2023-12-04T03:36:51;-2.60;99.90
13682;DHT22;6913;49.892;7.936;2023-12-04T03:39:18;-2.50;99.90
13682;DHT22;6913;49.892;7.936;2023-12-04T03:41:45;-2.50;99.90
13682;DHT22;6913;49.892;7.936;2023-12-04T03:44:13;-2.50;99.90
13682;DHT22;6913;49.892;7.936;2023-12-04T03:46:40;-2.50;99.90
13682;DHT22;6913;49.892;7.936;2023-12-04T03:49:07;-2.60;99.90
13682;DHT22;6913;49.892;7.936;2023-12-04T03:51:35;-2.60;99.90
13682;DHT22;6913;49.892;7.936;2023-12-04T03:54:02;-2.60;99.90
13682;DHT22;6913;49.892;7.936;2023-12-04T03:56:29;-2.60;99.90
13682;DHT22;6913;49.892;7.936;2023-12-04T03:58:55;-2.60;99.90
13682;DHT22;6913;49.892;7.936;2023-12-04T04:01:22;-2.60;99.90
13682;DHT22;6913;49.892;7.936;2023-12-04T04:03:49;-2.60;99.90
13682;DHT22;6913;49.892;7.936;2023-12-04T04:06:16;-2.60;99.90
13682;DHT22;6913;49.892;7.936;2023-12-04T04:08:44;-2.70;99.90
13682;DHT22;6913;49.892;7.936;2023-12-04T04:11:11;-1.10;99.90
13682;DHT22;6913;49.892;7.936;2023-12-04T04:13:38;-2.70;99.90
13682;DHT22;6913;49.892;7.936;2023-12-04T04:16:06;-2.70;99.90
13682;DHT22;6913;49.892;7.936;2023-12-04T04:18:33;-2.80;99.90
13682;DHT22;6913;49.892;7.936;2023-12-04T04:21:00;-2.80;99.90
13682;DHT22;6913;49.892;7.936;2023-12-04T04:23:27;-2.90;99.90
13682;DHT22;6913;49.892;7.936;2023-12-04T04:25:56;-2.80;99.90
13682;DHT22;6913;49.892;7.936;2023-12-04T04:28:22;-2.80;99.90
13682;DHT22;6913;49.892;7.936;2023-12-04T04:30:49;-2.80;99.90
13682;DHT22;6913;49.892;7.936;2023-12-04T04:33:16;-2.80;99.90
13682;DHT22;6913;49.892;7.936;2023-12-04T04:35:43;-1.80;99.90
13682;DHT22;6913;49.892;7.936;2023-12-04T04:38:10;-2.70;99.90
13682;DHT22;6913;49.892;7.936;2023-12-04T04:40:37;-1.70;99.90
13682;DHT22;6913;49.892;7.936;2023-12-04T04:43:09;-2.80;99.90
13682;DHT22;6913;49.892;7.936;2023-12-04T04:45:36;-2.50;99.90
13682;DHT22;6913;49.892;7.936;2023-12-04T04:48:04;-3.10;99.90
13682;DHT22;6913;49.892;7.936;2023-12-04T04:50:31;-3.20;99.90
13682;DHT22;6913;49.892;7.936;2023-12-04T04:52:57;-3.30;99.90
13682;DHT22;6913;49.892;7.936;2023-12-04T04:55:24;-3.30;99.90
13682;DHT22;6913;49.892;7.936;2023-12-04T04:57:51;-2.90;99.90
13682;DHT22;6913;49.892;7.936;2023-12-04T05:00:20;-3.30;99.90
13682;DHT22;6913;49.892;7.936;2023-12-04T05:02:47;-3.30;99.90
13682;DHT22;6913;49.892;7.936;2023-12-04T05:05:13;-3.20;99.90
13682;DHT22;6913;49.892;7.936;2023-12-04T05:07:40;-3.30;99.90
13682;DHT22;6913;49.892;7.936;2023-12-04T05:10:08;-3.30;99.90
13682;DHT22;6913;49.892;7.936;2023-12-04T05:12:35;-3.30;99.90
13682;DHT22;6913;49.892;7.936;2023-12-04T05:15:02;-3.30;99.90
13682;DHT22;6913;49.892;7.936;2023-12-04T05:17:31;-3.20;99.90
13682;DHT22;6913;49.892;7.936;2023-12-04T05:19:58;-3.30;99.90
13682;DHT22;6913;49.892;7.936;2023-12-04T05:22:25;-2.50;99.90
13682;DHT22;6913;49.892;7.936;2023-12-04T05:24:52;-3.30;99.90
13682;DHT22;6913;49.892;7.936;2023-12-04T05:27:19;-3.20;99.90
13682;DHT22;6913;49.892;7.936;2023-12-04T05:29:46;-3.20;99.90
13682;DHT22;6913;49.892;7.936;2023-12-04T05:32:13;-3.10;99.90
13682;DHT22;6913;49.892;7.936;2023-12-04T05:34:41;-3.10;99.90
13682;DHT22;6913;49.892;7.936;2023-12-04T05:37:08;-3.10;99.90
13682;DHT22;6913;49.892;7.936;2023-12-04T05:39:35;-3.00;99.90
13682;DHT22;6913;49.892;7.936;2023-12-04T05:42:02;-3.00;99.90
13682;DHT22;6913;49.892;7.936;2023-12-04T05:44:30;-3.00;99.90
13682;DHT22;6913;49.892;7.936;2023-12-04T05:46:57;-3.00;99.90
13682;DHT22;6913;49.892;7.936;2023-12-04T05:49:24;-2.90;99.90
13682;DHT22;6913;49.892;7.936;2023-12-04T05:51:52;-3.00;99.90
13682;DHT22;6913;49.892;7.936;2023-12-04T05:54:19;-2.90;99.90
13682;DHT22;6913;49.892;7.936;2023-12-04T05:56:46;-2.80;99.90
13682;DHT22;6913;49.892;7.936;2023-12-04T05:59:13;-2.80;99.90
13682;DHT22;6913;49.892;7.936;2023-12-04T06:01:40;-2.50;99.90
13682;DHT22;6913;49.892;7.936;2023-12-04T06:04:07;-2.80;99.90
13682;DHT22;6913;49.892;7.936;2023-12-04T06:06:34;-2.80;99.90
13682;DHT22;6913;49.892;7.936;2023-12-04T06:09:02;-2.80;99.90
13682;DHT22;6913;49.892;7.936;2023-12-04T06:11:29;-2.40;99.90
13682;DHT22;6913;49.892;7.936;2023-12-04T06:13:56;-2.70;99.90
13682;DHT22;6913;49.892;7.936;2023-12-04T06:16:23;-2.80;99.90
13682;DHT22;6913;49.892;7.936;2023-12-04T06:18:50;-2.80;99.90
13682;DHT22;6913;49.892;7.936;2023-12-04T06:21:18;-3.00;99.90
13682;DHT22;6913;49.892;7.936;2023-12-04T06:23:45;-3.10;99.90
13682;DHT22;6913;49.892;7.936;2023-12-04T06:26:14;-3.10;99.90
13682;DHT22;6913;49.892;7.936;2023-12-04T06:28:43;-3.10;99.90
13682;DHT22;6913;49.892;7.936;2023-12-04T06:31:11;-3.10;99.90
13682;DHT22;6913;49.892;7.936;2023-12-04T06:33:39;-3.10;99.90
13682;DHT22;6913;49.892;7.936;2023-12-04T06:36:07;-3.00;99.90
13682;DHT22;6913;49.892;7.936;2023-12-04T06:38:39;-3.10;99.90
13682;DHT22;6913;49.892;7.936;2023-12-04T06:41:08;-3.10;99.90
13682;DHT22;6913;49.892;7.936;2023-12-04T06:43:37;-3.10;99.90
13682;DHT22;6913;49.892;7.936;2023-12-04T06:46:05;-2.70;99.90
13682;DHT22;6913;49.892;7.936;2023-12-04T06:48:33;-3.10;99.90
13682;DHT22;6913;49.892;7.936;2023-12-04T06:51:00;-3.10;99.90
13682;DHT22;6913;49.892;7.936;2023-12-04T06:53:27;-3.10;99.90
13682;DHT22;6913;49.892;7.936;2023-12-04T06:55:54;-3.10;99.90
13682;DHT22;6913;49.892;7.936;2023-12-04T06:58:20;-3.10;99.90
13682;DHT22;6913;49.892;7.936;2023-12-04T07:00:49;-3.10;99.90
13682;DHT22;6913;49.892;7.936;2023-12-04T07:03:16;-3.00;99.90
13682;DHT22;6913;49.892;7.936;2023-12-04T07:05:43;-3.00;99.90
13682;DHT22;6913;49.892;7.936;2023-12-04T07:08:10;-3.00;99.90
13682;DHT22;6913;49.892;7.936;2023-12-04T07:10:37;-3.00;99.90
13682;DHT22;6913;49.892;7.936;2023-12-04T07:13:04;-2.90;99.90
13682;DHT22;6913;49.892;7.936;2023-12-04T07:15:31;-2.90;99.90
13682;DHT22;6913;49.892;7.936;2023-12-04T07:17:59;-2.90;99.90
13682;DHT22;6913;49.892;7.936;2023-12-04T07:20:26;-2.90;99.90
13682;DHT22;6913;49.892;7.936;2023-12-04T07:22:53;-2.90;99.90
13682;DHT22;6913;49.892;7.936;2023-12-04T07:25:20;-2.80;99.90
13682;DHT22;6913;49.892;7.936;2023-12-04T07:27:47;-2.80;99.90
13682;DHT22;6913;49.892;7.936;2023-12-04T07:30:14;-2.80;99.90
13682;DHT22;6913;49.892;7.936;2023-12-04T07:32:41;-2.80;99.90
13682;DHT22;6913;49.892;7.936;2023-12-04T07:35:09;-2.30;99.90
13682;DHT22;6913;49.892;7.936;2023-12-04T07:37:37;-2.80;99.90
13682;DHT22;6913;49.892;7.936;2023-12-04T07:40:05;-2.70;99.90
13682;DHT22;6913;49.892;7.936;2023-12-04T07:42:34;-2.70;99.90
13682;DHT22;6913;49.892;7.936;2023-12-04T07:45:01;-2.70;99.90
13682;DHT22;6913;49.892;7.936;2023-12-04T07:47:27;-2.70;99.90
13682;DHT22;6913;49.892;7.936;2023-12-04T07:49:54;-2.60;99.90
13682;DHT22;6913;49.892;7.936;2023-12-04T07:52:23;-2.60;99.90
13682;DHT22;6913;49.892;7.936;2023-12-04T07:54:50;-2.60;99.90
13682;DHT22;6913;49.892;7.936;2023-12-04T07:57:17;-2.60;99.90
13682;DHT22;6913;49.892;7.936;2023-12-04T07:59:43;-2.60;99.90
13682;DHT22;6913;49.892;7.936;2023-12-04T08:02:10;-2.60;99.90
13682;DHT22;6913;49.892;7.936;2023-12-04T08:04:37;-2.60;99.90
13682;DHT22;6913;49.892;7.936;2023-12-04T08:07:04;-2.60;99.90
13682;DHT22;6913;49.892;7.936;2023-12-04T08:09:32;-2.50;99.90
13682;DHT22;6913;49.892;7.936;2023-12-04T08:11:59;-2.50;99.90
13682;DHT22;6913;49.892;7.936;2023-12-04T08:14:26;-2.50;99.90
13682;DHT22;6913;49.892;7.936;2023-12-04T08:16:53;-2.50;99.90
13682;DHT22;6913;49.892;7.936;2023-12-04T08:19:20;-2.40;99.90
13682;DHT22;6913;49.892;7.936;2023-12-04T08:21:48;-2.40;99.90
13682;DHT22;6913;49.892;7.936;2023-12-04T08:24:15;-2.30;99.90
13682;DHT22;6913;49.892;7.936;2023-12-04T08:26:45;-2.20;99.90
13682;DHT22;6913;49.892;7.936;2023-12-04T08:29:12;-2.20;99.90
13682;DHT22;6913;49.892;7.936;2023-12-04T08:31:39;-1.70;99.90
13682;DHT22;6913;49.892;7.936;2023-12-04T08:34:06;-1.50;99.90
13682;DHT22;6913;49.892;7.936;2023-12-04T08:36:33;-2.10;99.90
13682;DHT22;6913;49.892;7.936;2023-12-04T08:39:00;-2.10;99.90
13682;DHT22;6913;49.892;7.936;2023-12-04T08:41:27;-2.00;99.90
13682;DHT22;6913;49.892;7.936;2023-12-04T08:43:55;-2.00;99.90
13682;DHT22;6913;49.892;7.936;2023-12-04T08:46:22;-2.00;99.90
13682;DHT22;6913;49.892;7.936;2023-12-04T08:48:49;-2.00;99.90
13682;DHT22;6913;49.892;7.936;2023-12-04T08:51:16;-1.90;99.90
13682;DHT22;6913;49.892;7.936;2023-12-04T08:53:43;-1.90;99.90
13682;DHT22;6913;49.892;7.936;2023-12-04T08:56:10;-1.90;99.90
13682;DHT22;6913;49.892;7.936;2023-12-04T08:58:38;-1.80;99.90
13682;DHT22;6913;49.892;7.936;2023-12-04T09:01:07;-1.10;99.90
13682;DHT22;6913;49.892;7.936;2023-12-04T09:03:33;-1.80;99.90
13682;DHT22;6913;49.892;7.936;2023-12-04T09:06:00;-1.80;99.90
13682;DHT22;6913;49.892;7.936;2023-12-04T09:08:27;-1.90;99.90
13682;DHT22;6913;49.892;7.936;2023-12-04T09:10:54;-1.80;99.90
13682;DHT22;6913;49.892;7.936;2023-12-04T09:13:22;-1.80;99.90
13682;DHT22;6913;49.892;7.936;2023-12-04T09:15:49;-1.90;99.90
13682;DHT22;6913;49.892;7.936;2023-12-04T09:18:18;-1.90;99.90
13682;DHT22;6913;49.892;7.936;2023-12-04T09:20:45;-1.90;99.90
13682;DHT22;6913;49.892;7.936;2023-12-04T09:23:12;-1.90;99.90
13682;DHT22;6913;49.892;7.936;2023-12-04T09:25:39;-1.40;99.90
13682;DHT22;6913;49.892;7.936;2023-12-04T09:28:06;-1.80;99.90
13682;DHT22;6913;49.892;7.936;2023-12-04T09:30:34;-1.80;99.90
13682;DHT22;6913;49.892;7.936;2023-12-04T09:33:02;-1.70;99.90
13682;DHT22;6913;49.892;7.936;2023-12-04T09:35:30;-1.60;99.90
13682;DHT22;6913;49.892;7.936;2023-12-04T09:37:57;-1.60;99.90
13682;DHT22;6913;49.892;7.936;2023-12-04T09:40:25;-1.50;99.90
13682;DHT22;6913;49.892;7.936;2023-12-04T09:42:52;-2.50;99.90
13682;DHT22;6913;49.892;7.936;2023-12-04T09:45:20;-1.40;99.90
13682;DHT22;6913;49.892;7.936;2023-12-04T09:47:48;-1.50;99.90
13682;DHT22;6913;49.892;7.936;2023-12-04T09:50:16;-1.50;99.90
13682;DHT22;6913;49.892;7.936;2023-12-04T09:52:48;-1.40;99.90
13682;DHT22;6913;49.892;7.936;2023-12-04T09:55:16;-1.30;99.90
13682;DHT22;6913;49.892;7.936;2023-12-04T09:57:43;-1.30;99.90
13682;DHT22;6913;49.892;7.936;2023-12-04T10:00:12;-1.30;99.90
13682;DHT22;6913;49.892;7.936;2023-12-04T10:02:40;-1.30;99.90
13682;DHT22;6913;49.892;7.936;2023-12-04T10:05:08;-0.80;99.90
13682;DHT22;6913;49.892;7.936;2023-12-04T10:07:35;-0.80;99.90
13682;DHT22;6913;49.892;7.936;2023-12-04T10:10:05;-0.80;99.90
13682;DHT22;6913;49.892;7.936;2023-12-04T10:12:35;-1.00;99.90
13682;DHT22;6913;49.892;7.936;2023-12-04T10:15:07;-0.90;99.90
13682;DHT22;6913;49.892;7.936;2023-12-04T10:17:34;-1.10;99.90
13682;DHT22;6913;49.892;7.936;2023-12-04T10:20:07;-1.10;99.90
13682;DHT22;6913;49.892;7.936;2023-12-04T10:22:38;-1.00;99.90
13682;DHT22;6913;49.892;7.936;2023-12-04T10:25:16;-1.00;99.90
13682;DHT22;6913;49.892;7.936;2023-12-04T10:27:43;-1.00;99.90
13682;DHT22;6913;49.892;7.936;2023-12-04T10:30:22;-1.00;99.90
13682;DHT22;6913;49.892;7.936;2023-12-04T10:32:53;-1.00;99.90
13682;DHT22;6913;49.892;7.936;2023-12-04T10:35:20;-1.20;99.90
13682;DHT22;6913;49.892;7.936;2023-12-04T10:37:48;-1.20;99.90
13682;DHT22;6913;49.892;7.936;2023-12-04T10:40:24;-1.30;99.90
13682;DHT22;6913;49.892;7.936;2023-12-04T10:42:51;-1.30;99.90
13682;DHT22;6913;49.892;7.936;2023-12-04T10:45:19;-1.50;99.90
13682;DHT22;6913;49.892;7.936;2023-12-04T10:47:49;-1.50;99.90
13682;DHT22;6913;49.892;7.936;2023-12-04T10:50:18;-1.40;99.90
13682;DHT22;6913;49.892;7.936;2023-12-04T10:52:45;-1.50;99.90
13682;DHT22;6913;49.892;7.936;2023-12-04T10:55:12;-1.50;99.90
13682;DHT22;6913;49.892;7.936;2023-12-04T10:57:43;-1.40;99.90
13682;DHT22;6913;49.892;7.936;2023-12-04T11:00:13;-1.50;99.90
13682;DHT22;6913;49.892;7.936;2023-12-04T11:02:43;-1.50;99.90
13682;DHT22;6913;49.892;7.936;2023-12-04T11:05:14;-1.50;99.90
13682;DHT22;6913;49.892;7.936;2023-12-04T11:07:48;-1.50;99.90
13682;DHT22;6913;49.892;7.936;2023-12-04T11:10:17;-1.50;99.90
13682;DHT22;6913;49.892;7.936;2023-12-04T11:12:50;-1.50;99.90
13682;DHT22;6913;49.892;7.936;2023-12-04T11:15:22;-1.60;99.90
13682;DHT22;6913;49.892;7.936;2023-12-04T11:17:54;-1.60;99.90
13682;DHT22;6913;49.892;7.936;2023-12-04T11:20:24;-1.60;99.90
13682;DHT22;6913;49.892;7.936;2023-12-04T11:22:54;-1.60;99.90
13682;DHT22;6913;49.892;7.936;2023-12-04T11:25:23;-1.60;99.90
13682;DHT22;6913;49.892;7.936;2023-12-04T11:27:52;-1.60;99.90
13682;DHT22;6913;49.892;7.936;2023-12-04T11:30:19;-0.90;99.90
13682;DHT22;6913;49.892;7.936;2023-12-04T11:32:48;-1.70;99.90
13682;DHT22;6913;49.892;7.936;2023-12-04T11:35:15;-1.60;99.90
13682;DHT22;6913;49.892;7.936;2023-12-04T11:37:43;-1.70;99.90
13682;DHT22;6913;49.892;7.936;2023-12-04T11:40:12;-1.80;99.90
13682;DHT22;6913;49.892;7.936;2023-12-04T11:42:39;-1.90;99.90
13682;DHT22;6913;49.892;7.936;2023-12-04T11:45:08;-0.80;99.90
13682;DHT22;6913;49.892;7.936;2023-12-04T11:47:53;-1.90;99.90
13682;DHT22;6913;49.892;7.936;2023-12-04T11:50:21;-0.50;99.90
13682;DHT22;6913;49.892;7.936;2023-12-04T11:52:48;-1.60;99.90
13682;DHT22;6913;49.892;7.936;2023-12-04T11:55:20;-1.80;99.90
13682;DHT22;6913;49.892;7.936;2023-12-04T11:57:49;-1.80;99.90
13682;DHT22;6913;49.892;7.936;2023-12-04T12:00:22;-1.70;99.90
13682;DHT22;6913;49.892;7.936;2023-12-04T12:03:03;-1.70;99.90
13682;DHT22;6913;49.892;7.936;2023-12-04T12:05:32;-1.60;99.90
13682;DHT22;6913;49.892;7.936;2023-12-04T12:08:01;-0.90;99.90
13682;DHT22;6913;49.892;7.936;2023-12-04T12:10:29;-1.10;99.90
13682;DHT22;6913;49.892;7.936;2023-12-04T12:12:56;-1.60;99.90
13682;DHT22;6913;49.892;7.936;2023-12-04T12:15:25;-1.60;99.90
13682;DHT22;6913;49.892;7.936;2023-12-04T12:17:53;-1.30;99.90
13682;DHT22;6913;49.892;7.936;2023-12-04T12:20:20;-1.70;99.90
13682;DHT22;6913;49.892;7.936;2023-12-04T12:22:48;-1.10;99.90
13682;DHT22;6913;49.892;7.936;2023-12-04T12:25:16;-1.40;99.90
13682;DHT22;6913;49.892;7.936;2023-12-04T12:27:43;-1.70;99.90
13682;DHT22;6913;49.892;7.936;2023-12-04T12:30:12;-1.70;99.90
13682;DHT22;6913;49.892;7.936;2023-12-04T12:32:40;-1.60;99.90
13682;DHT22;6913;49.892;7.936;2023-12-04T12:35:07;-1.60;99.90
13682;DHT22;6913;49.892;7.936;2023-12-04T12:37:34;-1.70;99.90
13682;DHT22;6913;49.892;7.936;2023-12-04T12:40:03;-1.60;99.90
13682;DHT22;6913;49.892;7.936;2023-12-04T12:42:30;-1.70;99.90
13682;DHT22;6913;49.892;7.936;2023-12-04T12:45:01;-1.70;99.90
13682;DHT22;6913;49.892;7.936;2023-12-04T12:47:29;-1.60;99.90
13682;DHT22;6913;49.892;7.936;2023-12-04T12:49:57;-1.70;99.90
13682;DHT22;6913;49.892;7.936;2023-12-04T12:52:27;-1.60;99.90
13682;DHT22;6913;49.892;7.936;2023-12-04T12:54:54;-1.60;99.90
13682;DHT22;6913;49.892;7.936;2023-12-04T12:57:21;-1.60;99.90
13682;DHT22;6913;49.892;7.936;2023-12-04T12:59:48;-1.30;99.90
13682;DHT22;6913;49.892;7.936;2023-12-04T13:02:14;-1.20;99.90
13682;DHT22;6913;49.892;7.936;2023-12-04T13:04:42;-0.30;99.90
13682;DHT22;6913;49.892;7.936;2023-12-04T13:07:11;-1.50;99.90
13682;DHT22;6913;49.892;7.936;2023-12-04T13:09:38;-1.50;99.90
13682;DHT22;6913;49.892;7.936;2023-12-04T13:12:06;-1.40;99.90
13682;DHT22;6913;49.892;7.936;2023-12-04T13:14:34;-1.40;99.90
13682;DHT22;6913;49.892;7.936;2023-12-04T13:17:01;-1.40;99.90
13682;DHT22;6913;49.892;7.936;2023-12-04T13:19:28;-1.50;99.90
13682;DHT22;6913;49.892;7.936;2023-12-04T13:21:57;-1.50;99.90
13682;DHT22;6913;49.892;7.936;2023-12-04T13:24:25;-1.60;99.90
13682;DHT22;6913;49.892;7.936;2023-12-04T13:26:53;-1.60;99.90
13682;DHT22;6913;49.892;7.936;2023-12-04T13:29:20;-1.30;99.90
13682;DHT22;6913;49.892;7.936;2023-12-04T13:31:47;-1.50;99.90
13682;DHT22;6913;49.892;7.936;2023-12-04T13:34:15;-1.50;99.90
13682;DHT22;6913;49.892;7.936;2023-12-04T13:36:42;-1.60;99.90
13682;DHT22;6913;49.892;7.936;2023-12-04T13:39:10;-1.20;99.90
13682;DHT22;6913;49.892;7.936;2023-12-04T13:41:44;-1.60;99.90
13682;DHT22;6913;49.892;7.936;2023-12-04T13:44:29;-1.10;99.90
13682;DHT22;6913;49.892;7.936;2023-12-04T13:46:56;-1.60;99.90
13682;DHT22;6913;49.892;7.936;2023-12-04T13:49:23;-1.60;99.90
13682;DHT22;6913;49.892;7.936;2023-12-04T13:51:50;-1.60;99.90
13682;DHT22;6913;49.892;7.936;2023-12-04T13:54:18;-1.60;99.90
13682;DHT22;6913;49.892;7.936;2023-12-04T13:56:49;-1.50;99.90
13682;DHT22;6913;49.892;7.936;2023-12-04T13:59:20;-1.50;99.90
13682;DHT22;6913;49.892;7.936;2023-12-04T14:01:47;-1.40;99.90
13682;DHT22;6913;49.892;7.936;2023-12-04T14:04:16;-1.50;99.90
13682;DHT22;6913;49.892;7.936;2023-12-04T14:06:43;-1.50;99.90
13682;DHT22;6913;49.892;7.936;2023-12-04T14:09:10;-1.50;99.90
13682;DHT22;6913;49.892;7.936;2023-12-04T14:11:41;-1.50;99.90
13682;DHT22;6913;49.892;7.936;2023-12-04T14:14:10;-1.60;99.90
13682;DHT22;6913;49.892;7.936;2023-12-04T14:16:38;-1.20;99.90
13682;DHT22;6913;49.892;7.936;2023-12-04T14:19:05;-1.50;99.90
13682;DHT22;6913;49.892;7.936;2023-12-04T14:21:32;-1.10;99.90
13682;DHT22;6913;49.892;7.936;2023-12-04T14:23:59;-1.20;99.90
13682;DHT22;6913;49.892;7.936;2023-12-04T14:26:26;-1.50;99.90
13682;DHT22;6913;49.892;7.936;2023-12-04T14:28:53;-1.50;99.90
13682;DHT22;6913;49.892;7.936;2023-12-04T14:31:23;-1.50;99.90
13682;DHT22;6913;49.892;7.936;2023-12-04T14:33:50;-1.00;99.90
13682;DHT22;6913;49.892;7.936;2023-12-04T14:36:18;-1.10;99.90
13682;DHT22;6913;49.892;7.936;2023-12-04T14:38:45;-1.60;99.90
13682;DHT22;6913;49.892;7.936;2023-12-04T14:41:12;-1.50;99.90
13682;DHT22;6913;49.892;7.936;2023-12-04T14:43:39;-1.50;99.90
13682;DHT22;6913;49.892;7.936;2023-12-04T14:46:07;-1.50;99.90
13682;DHT22;6913;49.892;7.936;2023-12-04T14:48:37;-1.40;99.90
13682;DHT22;6913;49.892;7.936;2023-12-04T14:51:05;-1.50;99.90
13682;DHT22;6913;49.892;7.936;2023-12-04T14:53:32;-1.50;99.90
13682;DHT22;6913;49.892;7.936;2023-12-04T14:56:10;-1.50;99.90
13682;DHT22;6913;49.892;7.936;2023-12-04T14:58:56;-1.50;99.90
13682;DHT22;6913;49.892;7.936;2023-12-04T15:01:40;-1.60;99.90
13682;DHT22;6913;49.892;7.936;2023-12-04T15:04:25;-1.60;99.90
13682;DHT22;6913;49.892;7.936;2023-12-04T15:07:06;-1.60;99.90
13682;DHT22;6913;49.892;7.936;2023-12-04T15:09:59;-1.70;99.90
13682;DHT22;6913;49.892;7.936;2023-12-04T15:12:55;-1.70;99.90
13682;DHT22;6913;49.892;7.936;2023-12-04T15:15:38;-1.70;99.90
13682;DHT22;6913;49.892;7.936;2023-12-04T15:18:27;-1.70;99.90
13682;DHT22;6913;49.892;7.936;2023-12-04T15:21:03;-1.70;99.90
13682;DHT22;6913;49.892;7.936;2023-12-04T15:23:30;-1.70;99.90
13682;DHT22;6913;49.892;7.936;2023-12-04T15:25:56;-1.70;99.90
13682;DHT22;6913;49.892;7.936;2023-12-04T15:28:23;-1.70;99.90
13682;DHT22;6913;49.892;7.936;2023-12-04T15:30:49;-1.70;99.90
13682;DHT22;6913;49.892;7.936;2023-12-04T15:33:16;-1.70;99.90
13682;DHT22;6913;49.892;7.936;2023-12-04T15:35:43;-1.70;99.90
13682;DHT22;6913;49.892;7.936;2023-12-04T15:38:10;-1.60;99.90
13682;DHT22;6913;49.892;7.936;2023-12-04T15:40:37;-1.60;99.90
13682;DHT22;6913;49.892;7.936;2023-12-04T15:43:04;-1.60;99.90
13682;DHT22;6913;49.892;7.936;2023-12-04T15:45:31;-1.60;99.90
13682;DHT22;6913;49.892;7.936;2023-12-04T15:47:57;-1.30;99.90
13682;DHT22;6913;49.892;7.936;2023-12-04T15:50:24;-1.60;99.90